ADDS METAR Data INFO
IDs: Format: Raw Decoded Include TAF

Data at: 1121 UTC 17 Jul 2018

KLAM 171115Z AUTO 00000KT 10SM CLR 16/14 A3040 RMK AO2 T01600137
KLAM 171055Z AUTO 32003KT 10SM CLR 16/14 A3040 RMK AO2 T01610137
KLAM 171035Z AUTO 31004KT 10SM SCT120 16/14 A3040 RMK AO2 T01610136
KLAM 171015Z AUTO 30005KT 10SM OVC120 16/14 A3040 RMK AO2 T01580141
KLAM 170955Z AUTO 34007KT 10SM OVC120 16/14 A3040 RMK AO2 T01600137
KLAM 170935Z AUTO 01006KT 10SM SCT065 OVC120 16/16 A3041 RMK AO2 T01570155
KLAM 170915Z AUTO 36006KT 10SM SCT095 OVC120 16/16 A3041 RMK AO2 T01560156
KLAM 170855Z AUTO 33008KT 10SM SCT080 BKN095 OVC120 16/16 A3041 RMK AO2 T01550155
KLAM 170835Z AUTO 36007KT 10SM SCT050 BKN060 OVC090 16/16 A3041 RMK AO2 T01560156
KLAM 170815Z AUTO 01004KT 10SM BKN060 BKN070 OVC110 16/16 A3042 RMK AO2 T01570156
KLAM 170755Z AUTO 01006KT 10SM SCT065 BKN070 OVC100 16/14 A3041 RMK AO2 T01590138
KLAM 170735Z AUTO 01005KT 10SM SCT065 OVC090 16/14 A3041 RMK AO2 T01610135
KLAM 170715Z AUTO 02008KT 10SM SCT065 BKN075 OVC090 16/13 A3042 RMK AO2 T01640130
KLAM 170655Z AUTO 03007KT 10SM SCT070 BKN085 OVC110 16/13 A3042 RMK AO2 T01630127
KLAM 170635Z AUTO 04005KT 10SM SCT085 BKN110 16/13 A3042 RMK AO2 T01640130
KLAM 170615Z AUTO 02005KT 10SM SCT070 SCT120 16/13 A3041 RMK AO2 T01630131
KLAM 170555Z AUTO 00000KT 10SM SCT070 SCT080 OVC110 17/13 A3042 RMK AO2 T01720126 10249 20165 402590160
KLAM 170535Z AUTO 32008KT 10SM SCT070 OVC090 17/13 A3041 RMK AO2 T01660132
KLAM 170515Z AUTO 32006KT 10SM -RA SCT060 SCT070 OVC090 17/13 A3042 RMK AO2 T01670131
KLAM 170455Z AUTO 34005KT 10SM RA SCT060 OVC090 17/13 A3042 RMK AO2 T01670131
KLAM 170435Z AUTO 32006KT 10SM -RA OVC100 17/13 A3041 RMK AO2 T01660132
KLAM 170415Z AUTO 32005KT 10SM OVC100 17/14 A3041 RMK AO2 T01670135
KLAM 170355Z AUTO 34004KT 7SM -RA SCT029 SCT044 OVC080 17/14 A3040 RMK AO2 T01650136
KLAM 170335Z AUTO 03005KT 10SM RA SCT045 SCT070 OVC080 17/13 A3039 RMK AO2 T01730131
KLAM 170315Z AUTO 02005KT 10SM BKN070 OVC080 20/11 A3038 RMK AO2 T01960111
KLAM 170255Z AUTO 32003KT 10SM -DZ BKN065 OVC080 20/11 A3037 RMK AO2 T02020110
KLAM 170235Z AUTO 00000KT 10SM -RA BKN065 OVC080 22/10 A3036 RMK AO2 T02220098
KLAM 170215Z AUTO 23003KT 10SM BKN065 BKN075 OVC110 22/10 A3035 RMK AO2 T02220095
KLAM 170155Z AUTO 20004KT 10SM SCT065 BKN075 BKN100 22/10 A3035 RMK AO2 T02230098
KLAM 170135Z AUTO 17006KT 10SM SCT065 SCT075 BKN090 23/10 A3035 RMK AO2 T02260095
KLAM 170115Z AUTO 20006KT 10SM SCT080 23/09 A3035 RMK AO2 T02320090
KLAM 170055Z AUTO 19007KT 10SM CLR 24/08 A3034 RMK AO2 T02410080
KLAM 170035Z AUTO 18009KT 10SM CLR 24/08 A3034 RMK AO2 T02420079
KLAM 170015Z AUTO 19009KT 10SM BKN120 25/09 A3034 RMK AO2 T02460090
KLAM 162355Z AUTO 17005KT 10SM BKN120 25/09 A3034 RMK AO2 T02450089 10259 20221
KLAM 162335Z AUTO 16006KT 10SM SCT110 25/09 A3033 RMK AO2 T02540085
KLAM 162315Z AUTO 16005KT 10SM SCT110 26/09 A3032 RMK AO2 T02550086
KLAM 162255Z AUTO 18007KT 10SM BKN110 24/09 A3033 RMK AO2 T02440090
KLAM 162240Z AUTO 19005KT 10SM BKN110 24/10 A3034 RMK AO2 T02350096
KLAM 162215Z AUTO 19008KT 10SM BKN090 OVC100 23/10 A3034 RMK AO2 T02250095
KLAM 162155Z AUTO 18014G20KT 10SM SCT060 OVC090 24/11 A3034 RMK AO2 T02400105
KLAM 162135Z AUTO 15008G18KT 10SM SCT060 SCT080 OVC100 25/09 A3034 RMK AO2 T02460090
KLAM 162115Z AUTO 17006KT 10SM SCT070 BKN080 BKN110 25/09 A3034 RMK AO2 T02530087
KLAM 162055Z AUTO 18011G16KT 10SM SCT060 BKN080 BKN100 25/08 A3035 RMK AO2 T02540077
KLAM 162035Z AUTO 19010KT 10SM SCT060 BKN080 OVC100 24/08 A3036 RMK AO2 T02400078
KLAM 162015Z AUTO 16009KT 10SM SCT080 OVC090 24/09 A3036 RMK AO2 T02420086
KLAM 161955Z AUTO 18011G15KT 10SM SCT060 OVC090 25/09 A3036 RMK AO2 T02460094
KLAM 161935Z AUTO 18006KT 10SM SCT060 BKN090 25/09 A3036 RMK AO2 T02480087
KLAM 161915Z AUTO 16005KT 10SM SCT060 26/08 A3036 RMK AO2 T02550081
KLAM 161855Z AUTO 19005KT 10SM SCT060 25/08 A3036 RMK AO2 T02540075
KLAM 161835Z AUTO 11004KT 10SM CLR 25/09 A3037 RMK AO2 T02480089
KLAM 161815Z AUTO 10007KT 10SM CLR 24/10 A3037 RMK AO2 T02410097
KLAM 161755Z AUTO 11006KT 10SM SCT049 24/10 A3038 RMK AO2 T02390097 10239 20168
KLAM 161735Z AUTO 21005KT 10SM CLR 23/10 A3038 RMK AO2 T02340095
KLAM 161715Z AUTO 07005KT 10SM CLR 23/10 A3039 RMK AO2 T02260098
KLAM 161655Z AUTO 05005KT 10SM SCT090 22/10 A3039 RMK AO2 T02200100
KLAM 161635Z AUTO 05005KT 10SM BKN090 22/11 A3039 RMK AO2 T02200110
KLAM 161615Z AUTO 05006KT 10SM BKN090 21/11 A3039 RMK AO2 T02140112
KLAM 161555Z AUTO 06006KT 10SM SCT090 22/12 A3039 RMK AO2 T02150117
KLAM 161535Z AUTO 04008KT 10SM CLR 21/12 A3039 RMK AO2 T02110116
KLAM 161515Z AUTO 07007KT 030V100 10SM SCT100 20/12 A3039 RMK AO2 T02000123
KLAM 161455Z AUTO 06006KT 10SM BKN100 19/13 A3039 RMK AO2 T01920125
KLAM 161435Z AUTO 04005KT 10SM OVC100 18/12 A3039 RMK AO2 T01800117
KLAM 161415Z AUTO 03003KT 10SM OVC100 18/11 A3038 RMK AO2 T01770114
KLAM 161355Z AUTO 01006KT 10SM BKN090 17/11 A3038 RMK AO2 T01730112
KLAM 161335Z AUTO 03006KT 10SM SCT090 SCT120 17/11 A3038 RMK AO2 T01700109
KLAM 161315Z AUTO 00000KT 10SM BKN120 18/10 A3037 RMK AO2 T01750100
KLAM 161255Z AUTO 29003KT 10SM SCT120 18/10 A3037 RMK AO2 T01770102
KLAM 161235Z AUTO 25005KT 10SM CLR 18/10 A3037 RMK AO2 T01760102
KLAM 161215Z AUTO 23004KT 10SM CLR 17/11 A3037 RMK AO2 T01720105
KLAM 161155Z AUTO 23007KT 10SM CLR 17/11 A3037 RMK AO2 T01690111 10186 20160
KLAM 161135Z AUTO 26006KT 10SM CLR 17/11 A3037 RMK AO2 T01670113
KLAM 161115Z AUTO 25005KT 10SM CLR 16/12 A3037 RMK AO2 T01600120
KLAM 161055Z AUTO 00000KT 10SM SCT110 16/12 A3037 RMK AO2 T01620119
KLAM 161035Z AUTO 00000KT 10SM BKN110 17/12 A3037 RMK AO2 T01680117
KLAM 161015Z AUTO 14004KT 10SM OVC110 18/11 A3037 RMK AO2 T01750114
KLAM 160955Z AUTO 00000KT 10SM OVC110 18/12 A3037 RMK AO2 T01750119
KLAM 160935Z AUTO 12003KT 10SM OVC110 18/12 A3037 RMK AO2 T01750119
KLAM 160915Z AUTO 00000KT 10SM OVC110 18/11 A3037 RMK AO2 T01760113
KLAM 160855Z AUTO 00000KT 10SM SCT120 18/11 A3036 RMK AO2 T01750114
KLAM 160835Z AUTO 00000KT 10SM SCT110 19/11 A3036 RMK AO2 T01850105
KLAM 160815Z AUTO 26005KT 10SM BKN110 18/11 A3035 RMK AO2 T01840114
KLAM 160755Z AUTO 28005KT 10SM BKN110 18/11 A3035 RMK AO2 T01840112
KLAM 160735Z AUTO 24003KT 10SM OVC110 18/12 A3037 RMK AO2 T01790117
KLAM 160715Z AUTO 23005KT 10SM OVC100 18/12 A3037 RMK AO2 T01760120
KLAM 160655Z AUTO 22004KT 10SM RA SCT030 SCT039 OVC090 18/11 A3039 RMK AO2 T01800113
KLAM 160635Z AUTO 00000KT 10SM DZ SCT032 SCT039 OVC090 18/12 A3040 RMK AO2 T01780123
KLAM 160615Z AUTO 36008KT 10SM RA SCT021 SCT032 OVC090 18/12 A3040 RMK AO2 T01820117
KLAM 160555Z AUTO 02011G14KT 7SM RA SCT021 BKN075 OVC095 19/12 A3039 RMK AO2 T01890115 10267 20189 402960163
KLAM 160535Z AUTO 02012G20KT 350V060 10SM OVC085 20/10 A3039 RMK AO2 T02010102
KLAM 160515Z AUTO 03013G19KT 10SM OVC095 21/10 A3039 RMK AO2 T02050097
KLAM 160455Z AUTO 35010G17KT 310V010 10SM OVC085 21/10 A3038 RMK AO2 T02070095
KLAM 160435Z AUTO 36015G20KT 10SM BKN095 BKN120 21/09 A3037 RMK AO2 T02070091
KLAM 160420Z AUTO 01017G21KT 330V030 10SM SCT095 SCT120 21/09 A3035 RMK AO2 T02100089
KLAM 160355Z AUTO 01011G27KT 10SM SCT090 SCT120 22/08 A3034 RMK AO2 T02200081
KLAM 160335Z AUTO 36014G19KT 320V030 10SM OVC100 23/08 A3033 RMK AO2 T02260075
KLAM 160315Z AUTO 01013G17KT 10SM OVC095 23/07 A3031 RMK AO2 T02300069
KLAM 160255Z AUTO 01015G22KT 10SM BKN095 23/07 A3029 RMK AO2 T02320070
KLAM 160235Z AUTO 01012G16KT 10SM BKN095 BKN120 24/07 A3029 RMK AO2 T02350069
KLAM 160215Z AUTO 36008KT 10SM BKN095 OVC110 24/07 A3028 RMK AO2 T02370068
KLAM 160155Z AUTO 01007G14KT 340V050 10SM BKN110 24/07 A3028 RMK AO2 T02400068
KLAM 160135Z AUTO 35011G17KT 10SM SCT100 25/07 A3027 RMK AO2 T02450065
KLAM 160115Z AUTO 01008KT 10SM SCT120 25/06 A3027 RMK AO2 T02500055
KLAM 160055Z AUTO 03009KT 360V060 10SM CLR 26/05 A3026 RMK AO2 T02550049
KLAM 160035Z AUTO 01009KT 340V040 10SM CLR 27/05 A3026 RMK AO2 T02660050
KLAM 160015Z AUTO 31003KT 10SM CLR 26/06 A3026 RMK AO2 T02620063
KLAM 152355Z AUTO 30003KT 10SM CLR 26/08 A3027 RMK AO2 T02560077 10296 20195
KLAM 152335Z AUTO 27005KT 10SM CLR 26/08 A3027 RMK AO2 T02560082